sensor_id;sensor_type;location;lat;lon;timestamp;pressure;altitude;pressure_sealevel;temperature;humidity
74778;BME280;63298;53.164;8.610;2023-10-09T00:01:14;102168.09;;;14.76;71.42
74778;BME280;63298;53.164;8.610;2023-10-09T00:03:41;102146.75;;;14.76;71.72
74778;BME280;63298;53.164;8.610;2023-10-09T00:06:06;102145.66;;;14.77;71.50
74778;BME280;63298;53.164;8.610;2023-10-09T00:08:32;102139.72;;;14.74;71.60
74778;BME280;63298;53.164;8.610;2023-10-09T00:10:59;102121.06;;;14.62;72.30
74778;BME280;63298;53.164;8.610;2023-10-09T00:13:25;102105.47;;;14.61;72.08
74778;BME280;63298;53.164;8.610;2023-10-09T00:15:50;102098.63;;;14.64;72.14
74778;BME280;63298;53.164;8.610;2023-10-09T00:18:16;102101.53;;;14.69;71.85
74778;BME280;63298;53.164;8.610;2023-10-09T00:20:41;102099.38;;;14.71;72.06
74778;BME280;63298;53.164;8.610;2023-10-09T00:23:09;102073.06;;;14.55;72.01
74778;BME280;63298;53.164;8.610;2023-10-09T00:25:34;102067.78;;;14.54;72.45
74778;BME280;63298;53.164;8.610;2023-10-09T00:28:00;102066.22;;;14.58;72.65
74778;BME280;63298;53.164;8.610;2023-10-09T00:30:28;102097.53;;;14.65;72.67
74778;BME280;63298;53.164;8.610;2023-10-09T00:32:56;102083.25;;;14.61;72.65
74778;BME280;63298;53.164;8.610;2023-10-09T00:35:24;102078.63;;;14.74;72.79
74778;BME280;63298;53.164;8.610;2023-10-09T00:37:54;102058.88;;;14.63;71.93
74778;BME280;63298;53.164;8.610;2023-10-09T00:40:20;102051.63;;;14.62;72.97
74778;BME280;63298;53.164;8.610;2023-10-09T00:42:45;102073.63;;;14.64;72.99
74778;BME280;63298;53.164;8.610;2023-10-09T00:45:11;102079.56;;;14.67;72.81
74778;BME280;63298;53.164;8.610;2023-10-09T00:47:38;102076.69;;;14.74;72.87
74778;BME280;63298;53.164;8.610;2023-10-09T00:50:07;102054.19;;;14.64;72.97
74778;BME280;63298;53.164;8.610;2023-10-09T00:52:33;102051.78;;;14.67;72.65
74778;BME280;63298;53.164;8.610;2023-10-09T00:55:00;102041.59;;;14.61;72.88
74778;BME280;63298;53.164;8.610;2023-10-09T00:57:26;102047.41;;;14.60;72.89
74778;BME280;63298;53.164;8.610;2023-10-09T00:59:54;102034.09;;;14.62;72.63
74778;BME280;63298;53.164;8.610;2023-10-09T01:02:19;102013.09;;;14.54;72.88
74778;BME280;63298;53.164;8.610;2023-10-09T01:04:45;102010.53;;;14.53;73.17
74778;BME280;63298;53.164;8.610;2023-10-09T01:07:10;102003.91;;;14.54;73.02
74778;BME280;63298;53.164;8.610;2023-10-09T01:09:36;101994.94;;;14.52;72.61
74778;BME280;63298;53.164;8.610;2023-10-09T01:12:01;102008.53;;;14.60;73.08
74778;BME280;63298;53.164;8.610;2023-10-09T01:14:27;101974.06;;;14.49;73.43
74778;BME280;63298;53.164;8.610;2023-10-09T01:17:01;101973.34;;;14.54;73.08
74778;BME280;63298;53.164;8.610;2023-10-09T01:19:29;101941.19;;;14.46;73.38
74778;BME280;63298;53.164;8.610;2023-10-09T01:21:54;101949.66;;;14.51;73.28
74778;BME280;63298;53.164;8.610;2023-10-09T01:24:20;101928.16;;;14.47;73.74
74778;BME280;63298;53.164;8.610;2023-10-09T01:26:46;101930.09;;;14.46;74.05
74778;BME280;63298;53.164;8.610;2023-10-09T01:29:14;101948.59;;;14.52;73.67
74778;BME280;63298;53.164;8.610;2023-10-09T01:31:48;101918.47;;;14.38;73.96
74778;BME280;63298;53.164;8.610;2023-10-09T01:34:13;101937.44;;;14.41;73.92
74778;BME280;63298;53.164;8.610;2023-10-09T01:36:39;101945.91;;;14.46;73.98
74778;BME280;63298;53.164;8.610;2023-10-09T01:39:05;101939.75;;;14.44;73.88
74778;BME280;63298;53.164;8.610;2023-10-09T01:41:32;101941.09;;;14.53;74.09
74778;BME280;63298;53.164;8.610;2023-10-09T01:43:58;101925.88;;;14.55;74.33
74778;BME280;63298;53.164;8.610;2023-10-09T01:46:23;101912.41;;;14.59;73.77
74778;BME280;63298;53.164;8.610;2023-10-09T01:48:49;101903.22;;;14.58;74.14
74778;BME280;63298;53.164;8.610;2023-10-09T01:51:14;101883.16;;;14.56;74.06
74778;BME280;63298;53.164;8.610;2023-10-09T01:53:40;101902.50;;;14.63;74.04
74778;BME280;63298;53.164;8.610;2023-10-09T01:56:10;101919.66;;;14.60;73.93
74778;BME280;63298;53.164;8.610;2023-10-09T01:58:37;101911.78;;;14.57;74.23
74778;BME280;63298;53.164;8.610;2023-10-09T02:01:03;101906.97;;;14.64;74.25
74778;BME280;63298;53.164;8.610;2023-10-09T02:03:31;101882.06;;;14.57;74.43
74778;BME280;63298;53.164;8.610;2023-10-09T02:05:56;101870.13;;;14.57;74.10
74778;BME280;63298;53.164;8.610;2023-10-09T02:08:22;101866.25;;;14.58;74.14
74778;BME280;63298;53.164;8.610;2023-10-09T02:10:50;101857.31;;;14.56;74.25
74778;BME280;63298;53.164;8.610;2023-10-09T02:13:16;101841.16;;;14.53;74.20
74778;BME280;63298;53.164;8.610;2023-10-09T02:15:41;101843.06;;;14.52;74.50
74778;BME280;63298;53.164;8.610;2023-10-09T02:18:06;101835.34;;;14.54;74.60
74778;BME280;63298;53.164;8.610;2023-10-09T02:20:32;101842.56;;;14.55;74.27
74778;BME280;63298;53.164;8.610;2023-10-09T02:23:03;101816.63;;;14.50;74.65
74778;BME280;63298;53.164;8.610;2023-10-09T02:25:28;101826.19;;;14.54;74.77
74778;BME280;63298;53.164;8.610;2023-10-09T02:27:54;101814.94;;;14.49;74.77
74778;BME280;63298;53.164;8.610;2023-10-09T02:30:25;101814.22;;;14.53;75.03
74778;BME280;63298;53.164;8.610;2023-10-09T02:32:59;101822.06;;;14.56;75.19
74778;BME280;63298;53.164;8.610;2023-10-09T02:35:30;101823.16;;;14.55;74.78
74778;BME280;63298;53.164;8.610;2023-10-09T02:37:57;101805.63;;;14.43;74.94
74778;BME280;63298;53.164;8.610;2023-10-09T02:40:22;101803.22;;;14.47;75.15
74778;BME280;63298;53.164;8.610;2023-10-09T02:42:52;101805.41;;;14.45;74.66
74778;BME280;63298;53.164;8.610;2023-10-09T02:45:22;101806.47;;;14.44;75.14
74778;BME280;63298;53.164;8.610;2023-10-09T02:47:50;101805.00;;;14.41;75.24
74778;BME280;63298;53.164;8.610;2023-10-09T02:50:18;101812.63;;;14.46;75.46
74778;BME280;63298;53.164;8.610;2023-10-09T02:52:49;101810.97;;;14.45;74.88
74778;BME280;63298;53.164;8.610;2023-10-09T02:55:22;101831.13;;;14.52;75.24
74778;BME280;63298;53.164;8.610;2023-10-09T02:57:49;101806.25;;;14.45;75.07
74778;BME280;63298;53.164;8.610;2023-10-09T03:00:18;101830.03;;;14.53;75.06
74778;BME280;63298;53.164;8.610;2023-10-09T03:02:46;101854.44;;;14.62;74.87
74778;BME280;63298;53.164;8.610;2023-10-09T03:05:13;101834.75;;;14.52;75.32
74778;BME280;63298;53.164;8.610;2023-10-09T03:07:40;101821.09;;;14.51;75.13
74778;BME280;63298;53.164;8.610;2023-10-09T03:10:08;101814.22;;;14.53;75.11
74778;BME280;63298;53.164;8.610;2023-10-09T03:12:36;101815.66;;;14.56;75.04
74778;BME280;63298;53.164;8.610;2023-10-09T03:15:07;101797.91;;;14.57;74.99
74778;BME280;63298;53.164;8.610;2023-10-09T03:17:33;101795.50;;;14.60;75.30
74778;BME280;63298;53.164;8.610;2023-10-09T03:19:59;101788.63;;;14.63;75.26
74778;BME280;63298;53.164;8.610;2023-10-09T03:22:25;101797.31;;;14.66;75.11
74778;BME280;63298;53.164;8.610;2023-10-09T03:24:53;101775.09;;;14.66;75.15
74778;BME280;63298;53.164;8.610;2023-10-09T03:27:22;101785.59;;;14.76;75.07
74778;BME280;63298;53.164;8.610;2023-10-09T03:29:50;101784.28;;;14.67;75.09
74778;BME280;63298;53.164;8.610;2023-10-09T03:32:17;101782.00;;;14.64;75.36
74778;BME280;63298;53.164;8.610;2023-10-09T03:34:45;101780.06;;;14.64;75.33
74778;BME280;63298;53.164;8.610;2023-10-09T03:37:11;101781.84;;;14.70;75.21
74778;BME280;63298;53.164;8.610;2023-10-09T03:39:37;101776.81;;;14.67;75.31
74778;BME280;63298;53.164;8.610;2023-10-09T03:42:02;101784.41;;;14.72;75.35
74778;BME280;63298;53.164;8.610;2023-10-09T03:44:28;101792.25;;;14.75;75.06
74778;BME280;63298;53.164;8.610;2023-10-09T03:46:56;101795.50;;;14.72;75.27
74778;BME280;63298;53.164;8.610;2023-10-09T03:49:24;101798.91;;;14.74;75.34
74778;BME280;63298;53.164;8.610;2023-10-09T03:51:50;101783.09;;;14.75;75.28
74778;BME280;63298;53.164;8.610;2023-10-09T03:54:15;101773.78;;;14.69;75.29
74778;BME280;63298;53.164;8.610;2023-10-09T03:56:41;101772.81;;;14.63;75.29
74778;BME280;63298;53.164;8.610;2023-10-09T03:59:08;101777.03;;;14.66;75.40
74778;BME280;63298;53.164;8.610;2023-10-09T04:01:34;101783.56;;;14.72;75.50
74778;BME280;63298;53.164;8.610;2023-10-09T04:04:00;101758.09;;;14.63;75.50
74778;BME280;63298;53.164;8.610;2023-10-09T04:06:27;101767.16;;;14.70;75.44
74778;BME280;63298;53.164;8.610;2023-10-09T04:08:52;101783.44;;;14.66;75.87
74778;BME280;63298;53.164;8.610;2023-10-09T04:11:18;101786.47;;;14.65;75.71
74778;BME280;63298;53.164;8.610;2023-10-09T04:13:44;101780.31;;;14.63;75.50
74778;BME280;63298;53.164;8.610;2023-10-09T04:16:09;101788.88;;;14.73;75.90
74778;BME280;63298;53.164;8.610;2023-10-09T04:18:35;101761.94;;;14.62;75.98
74778;BME280;63298;53.164;8.610;2023-10-09T04:21:00;101749.13;;;14.61;75.82
74778;BME280;63298;53.164;8.610;2023-10-09T04:23:25;101759.78;;;14.64;76.21
74778;BME280;63298;53.164;8.610;2023-10-09T04:25:51;101783.19;;;14.68;75.97
74778;BME280;63298;53.164;8.610;2023-10-09T04:28:19;101802.53;;;14.63;76.48
74778;BME280;63298;53.164;8.610;2023-10-09T04:30:45;101784.66;;;14.59;76.28
74778;BME280;63298;53.164;8.610;2023-10-09T04:33:14;101759.03;;;14.57;76.37
74778;BME280;63298;53.164;8.610;2023-10-09T04:35:39;101766.16;;;14.53;76.32
74778;BME280;63298;53.164;8.610;2023-10-09T04:38:05;101776.31;;;14.59;76.69
74778;BME280;63298;53.164;8.610;2023-10-09T04:40:32;101773.53;;;14.59;76.75
74778;BME280;63298;53.164;8.610;2023-10-09T04:42:58;101744.31;;;14.56;76.55
74778;BME280;63298;53.164;8.610;2023-10-09T04:45:23;101753.38;;;14.63;76.66
74778;BME280;63298;53.164;8.610;2023-10-09T04:47:48;101759.16;;;14.62;76.85
74778;BME280;63298;53.164;8.610;2023-10-09T04:50:14;101729.84;;;14.54;76.63
74778;BME280;63298;53.164;8.610;2023-10-09T04:52:44;101749.13;;;14.61;76.70
74778;BME280;63298;53.164;8.610;2023-10-09T04:55:10;101755.81;;;14.60;76.92
74778;BME280;63298;53.164;8.610;2023-10-09T04:57:37;101769.91;;;14.58;76.65
74778;BME280;63298;53.164;8.610;2023-10-09T05:00:05;101775.25;;;14.60;76.81
74778;BME280;63298;53.164;8.610;2023-10-09T05:02:30;101754.47;;;14.62;76.95
74778;BME280;63298;53.164;8.610;2023-10-09T05:04:56;101764.84;;;14.67;76.87
74778;BME280;63298;53.164;8.610;2023-10-09T05:07:21;101736.25;;;14.55;77.43
74778;BME280;63298;53.164;8.610;2023-10-09T05:09:46;101741.19;;;14.53;77.43
74778;BME280;63298;53.164;8.610;2023-10-09T05:12:12;101741.78;;;14.55;77.00
74778;BME280;63298;53.164;8.610;2023-10-09T05:14:43;101734.06;;;14.57;76.95
74778;BME280;63298;53.164;8.610;2023-10-09T05:17:08;101733.09;;;14.63;77.40
74778;BME280;63298;53.164;8.610;2023-10-09T05:19:33;101735.50;;;14.59;77.38
74778;BME280;63298;53.164;8.610;2023-10-09T05:21:59;101736.38;;;14.60;77.54
74778;BME280;63298;53.164;8.610;2023-10-09T05:24:28;101741.66;;;14.61;77.35
74778;BME280;63298;53.164;8.610;2023-10-09T05:26:53;101724.88;;;14.68;76.81
74778;BME280;63298;53.164;8.610;2023-10-09T05:29:23;101711.59;;;14.58;76.97
74778;BME280;63298;53.164;8.610;2023-10-09T05:31:50;101699.75;;;14.63;77.17
74778;BME280;63298;53.164;8.610;2023-10-09T05:34:18;101698.31;;;14.60;77.59
74778;BME280;63298;53.164;8.610;2023-10-09T05:36:44;101706.50;;;14.67;77.36
74778;BME280;63298;53.164;8.610;2023-10-09T05:39:09;101720.03;;;14.75;77.23
74778;BME280;63298;53.164;8.610;2023-10-09T05:41:37;101721.72;;;14.76;77.28
74778;BME280;63298;53.164;8.610;2023-10-09T05:44:05;101720.28;;;14.74;77.61
74778;BME280;63298;53.164;8.610;2023-10-09T05:46:33;101723.19;;;14.79;77.33
74778;BME280;63298;53.164;8.610;2023-10-09T05:48:59;101718.81;;;14.71;77.84
74778;BME280;63298;53.164;8.610;2023-10-09T05:51:24;101714.38;;;14.70;78.00
74778;BME280;63298;53.164;8.610;2023-10-09T05:53:49;101715.69;;;14.67;77.99
74778;BME280;63298;53.164;8.610;2023-10-09T05:56:15;101726.69;;;14.74;78.18
74778;BME280;63298;53.164;8.610;2023-10-09T05:58:43;101715.59;;;14.74;78.03
74778;BME280;63298;53.164;8.610;2023-10-09T06:01:08;101704.09;;;14.70;78.61
74778;BME280;63298;53.164;8.610;2023-10-09T06:03:33;101720.75;;;14.82;78.47
74778;BME280;63298;53.164;8.610;2023-10-09T06:05:59;101730.28;;;14.86;78.47
74778;BME280;63298;53.164;8.610;2023-10-09T06:08:25;101716.28;;;14.81;78.19
74778;BME280;63298;53.164;8.610;2023-10-09T06:10:51;101725.09;;;14.90;78.76
74778;BME280;63298;53.164;8.610;2023-10-09T06:13:17;101719.28;;;14.91;78.64
74778;BME280;63298;53.164;8.610;2023-10-09T06:15:45;101713.63;;;14.86;78.47
74778;BME280;63298;53.164;8.610;2023-10-09T06:18:13;101721.59;;;14.94;78.86
74778;BME280;63298;53.164;8.610;2023-10-09T06:20:41;101727.16;;;14.94;78.55
74778;BME280;63298;53.164;8.610;2023-10-09T06:23:09;101716.03;;;14.94;78.47
74778;BME280;63298;53.164;8.610;2023-10-09T06:25:35;101713.50;;;14.93;78.60
74778;BME280;63298;53.164;8.610;2023-10-09T06:28:01;101716.84;;;14.95;78.88
74778;BME280;63298;53.164;8.610;2023-10-09T06:30:26;101723.25;;;14.95;78.87
74778;BME280;63298;53.164;8.610;2023-10-09T06:32:51;101721.81;;;14.93;78.99
74778;BME280;63298;53.164;8.610;2023-10-09T06:35:17;101708.44;;;14.90;79.30
74778;BME280;63298;53.164;8.610;2023-10-09T06:37:47;101705.38;;;14.91;79.23
74778;BME280;63298;53.164;8.610;2023-10-09T06:40:15;101712.66;;;14.92;79.28
74778;BME280;63298;53.164;8.610;2023-10-09T06:42:40;101716.03;;;14.94;79.36
74778;BME280;63298;53.164;8.610;2023-10-09T06:45:08;101721.31;;;14.96;79.82
74778;BME280;63298;53.164;8.610;2023-10-09T06:47:34;101714.91;;;14.95;79.70
74778;BME280;63298;53.164;8.610;2023-10-09T06:49:59;101736.06;;;14.96;79.60
74778;BME280;63298;53.164;8.610;2023-10-09T06:52:26;101736.06;;;14.96;79.73
74778;BME280;63298;53.164;8.610;2023-10-09T06:54:55;101750.31;;;15.00;79.92
74778;BME280;63298;53.164;8.610;2023-10-09T06:57:20;101747.06;;;15.03;79.74
74778;BME280;63298;53.164;8.610;2023-10-09T06:59:45;101733.16;;;15.03;80.31
74778;BME280;63298;53.164;8.610;2023-10-09T07:02:11;101734.38;;;15.07;79.80
74778;BME280;63298;53.164;8.610;2023-10-09T07:04:43;101730.25;;;15.09;79.96
74778;BME280;63298;53.164;8.610;2023-10-09T07:07:09;101740.88;;;15.12;79.93
74778;BME280;63298;53.164;8.610;2023-10-09T07:09:37;101752.34;;;15.16;80.07
74778;BME280;63298;53.164;8.610;2023-10-09T07:12:05;101750.19;;;15.18;79.92
74778;BME280;63298;53.164;8.610;2023-10-09T07:14:33;101752.22;;;15.23;80.39
74778;BME280;63298;53.164;8.610;2023-10-09T07:17:01;101743.38;;;15.26;80.30
74778;BME280;63298;53.164;8.610;2023-10-09T07:19:27;101740.59;;;15.26;80.52
74778;BME280;63298;53.164;8.610;2023-10-09T07:21:53;101740.59;;;15.26;81.20
74778;BME280;63298;53.164;8.610;2023-10-09T07:24:18;101735.31;;;15.24;81.10
74778;BME280;63298;53.164;8.610;2023-10-09T07:26:43;101736.72;;;15.27;81.04
74778;BME280;63298;53.164;8.610;2023-10-09T07:29:09;101736.50;;;15.28;81.30
74778;BME280;63298;53.164;8.610;2023-10-09T07:31:36;101720.16;;;15.32;81.12
74778;BME280;63298;53.164;8.610;2023-10-09T07:34:02;101716.88;;;15.35;81.20
74778;BME280;63298;53.164;8.610;2023-10-09T07:36:37;101710.13;;;15.31;81.13
74778;BME280;63298;53.164;8.610;2023-10-09T07:39:04;101722.53;;;15.40;81.56
74778;BME280;63298;53.164;8.610;2023-10-09T07:41:32;101724.00;;;15.42;81.94
74778;BME280;63298;53.164;8.610;2023-10-09T07:43:57;101725.91;;;15.42;82.50
74778;BME280;63298;53.164;8.610;2023-10-09T07:46:23;101726.53;;;15.44;82.40
74778;BME280;63298;53.164;8.610;2023-10-09T07:48:51;101715.88;;;15.41;82.02
74778;BME280;63298;53.164;8.610;2023-10-09T07:51:16;101724.66;;;15.49;82.04
74778;BME280;63298;53.164;8.610;2023-10-09T07:53:47;101730.03;;;15.51;82.65
74778;BME280;63298;53.164;8.610;2023-10-09T07:56:15;101729.78;;;15.52;83.05
74778;BME280;63298;53.164;8.610;2023-10-09T07:58:41;101725.06;;;15.53;83.16
74778;BME280;63298;53.164;8.610;2023-10-09T08:01:06;101726.25;;;15.57;83.03
74778;BME280;63298;53.164;8.610;2023-10-09T08:03:32;101717.69;;;15.59;83.39
74778;BME280;63298;53.164;8.610;2023-10-09T08:05:58;101714.03;;;15.58;83.11
74778;BME280;63298;53.164;8.610;2023-10-09T08:08:24;101721.03;;;15.61;83.18
74778;BME280;63298;53.164;8.610;2023-10-09T08:10:49;101729.47;;;15.66;83.21
74778;BME280;63298;53.164;8.610;2023-10-09T08:13:17;101726.94;;;15.64;84.32
74778;BME280;63298;53.164;8.610;2023-10-09T08:15:45;101721.63;;;15.63;84.02
74778;BME280;63298;53.164;8.610;2023-10-09T08:18:12;101735.28;;;15.64;84.87
74778;BME280;63298;53.164;8.610;2023-10-09T08:20:38;101735.88;;;15.66;84.55
74778;BME280;63298;53.164;8.610;2023-10-09T08:23:03;101743.63;;;15.64;85.29
74778;BME280;63298;53.164;8.610;2023-10-09T08:25:31;101735.56;;;15.63;85.79
74778;BME280;63298;53.164;8.610;2023-10-09T08:28:03;101734.69;;;15.62;85.17
74778;BME280;63298;53.164;8.610;2023-10-09T08:30:29;101739.28;;;15.68;85.08
74778;BME280;63298;53.164;8.610;2023-10-09T08:32:54;101743.16;;;15.67;85.55
74778;BME280;63298;53.164;8.610;2023-10-09T08:35:20;101732.03;;;15.67;85.59
74778;BME280;63298;53.164;8.610;2023-10-09T08:37:51;101738.16;;;15.69;85.65
74778;BME280;63298;53.164;8.610;2023-10-09T08:40:20;101723.78;;;15.72;85.37
74778;BME280;63298;53.164;8.610;2023-10-09T08:42:52;101735.47;;;15.74;85.60
74778;BME280;63298;53.164;8.610;2023-10-09T08:45:21;101728.59;;;15.77;85.44
74778;BME280;63298;53.164;8.610;2023-10-09T08:47:47;101737.25;;;15.80;84.94
74778;BME280;63298;53.164;8.610;2023-10-09T08:50:12;101739.81;;;15.82;85.29
74778;BME280;63298;53.164;8.610;2023-10-09T08:52:38;101730.09;;;15.84;84.91
74778;BME280;63298;53.164;8.610;2023-10-09T08:55:07;101735.66;;;15.84;85.23
74778;BME280;63298;53.164;8.610;2023-10-09T08:57:38;101725.06;;;15.81;85.67
74778;BME280;63298;53.164;8.610;2023-10-09T09:00:04;101739.66;;;15.88;84.92
74778;BME280;63298;53.164;8.610;2023-10-09T09:02:30;101728.03;;;15.91;85.01
74778;BME280;63298;53.164;8.610;2023-10-09T09:04:55;101734.53;;;15.97;84.66
74778;BME280;63298;53.164;8.610;2023-10-09T09:07:28;101728.97;;;15.97;84.78
74778;BME280;63298;53.164;8.610;2023-10-09T09:10:00;101724.81;;;15.99;85.02
74778;BME280;63298;53.164;8.610;2023-10-09T09:12:27;101722.88;;;16.00;85.04
74778;BME280;63298;53.164;8.610;2023-10-09T09:14:53;101730.47;;;16.05;84.74
74778;BME280;63298;53.164;8.610;2023-10-09T09:17:32;101725.50;;;16.07;86.53
74778;BME280;63298;53.164;8.610;2023-10-09T09:20:19;101718.25;;;16.06;85.74
74778;BME280;63298;53.164;8.610;2023-10-09T09:22:54;101717.25;;;16.12;85.71
74778;BME280;63298;53.164;8.610;2023-10-09T09:25:20;101724.84;;;16.16;85.04
74778;BME280;63298;53.164;8.610;2023-10-09T09:27:46;101721.53;;;16.19;85.06
74778;BME280;63298;53.164;8.610;2023-10-09T09:30:25;101727.72;;;16.21;85.09
74778;BME280;63298;53.164;8.610;2023-10-09T09:32:51;101725.25;;;16.25;84.71
74778;BME280;63298;53.164;8.610;2023-10-09T09:35:19;101734.78;;;16.29;84.65
74778;BME280;63298;53.164;8.610;2023-10-09T09:37:52;101742.03;;;16.30;84.54
74778;BME280;63298;53.164;8.610;2023-10-09T09:40:18;101740.72;;;16.32;84.89
74778;BME280;63298;53.164;8.610;2023-10-09T09:42:43;101734.78;;;16.29;85.33
74778;BME280;63298;53.164;8.610;2023-10-09T09:45:09;101745.16;;;16.33;85.28
74778;BME280;63298;53.164;8.610;2023-10-09T09:47:37;101742.97;;;16.35;85.18
74778;BME280;63298;53.164;8.610;2023-10-09T09:50:05;101741.03;;;16.36;85.01
74778;BME280;63298;53.164;8.610;2023-10-09T09:52:31;101741.63;;;16.38;85.25
74778;BME280;63298;53.164;8.610;2023-10-09T09:54:59;101747.78;;;16.40;85.29
74778;BME280;63298;53.164;8.610;2023-10-09T09:57:24;101746.94;;;16.39;85.67
74778;BME280;63298;53.164;8.610;2023-10-09T09:59:49;101752.84;;;16.43;85.61
74778;BME280;63298;53.164;8.610;2023-10-09T10:02:20;101743.91;;;16.41;86.43
74778;BME280;63298;53.164;8.610;2023-10-09T10:04:53;101743.31;;;16.39;86.86
74778;BME280;63298;53.164;8.610;2023-10-09T10:07:20;101741.69;;;16.43;86.45
74778;BME280;63298;53.164;8.610;2023-10-09T10:09:49;101741.22;;;16.46;86.57
74778;BME280;63298;53.164;8.610;2023-10-09T10:12:21;101735.13;;;16.49;86.25
74778;BME280;63298;53.164;8.610;2023-10-09T10:14:59;101740.19;;;16.52;86.14
74778;BME280;63298;53.164;8.610;2023-10-09T10:17:25;101748.03;;;16.55;86.55
74778;BME280;63298;53.164;8.610;2023-10-09T10:22:26;101750.34;;;16.58;86.64
74778;BME280;63298;53.164;8.610;2023-10-09T10:24:54;101749.84;;;16.61;86.46
74778;BME280;63298;53.164;8.610;2023-10-09T10:27:20;101751.53;;;16.62;86.82
74778;BME280;63298;53.164;8.610;2023-10-09T10:29:46;101751.53;;;16.62;86.98
74778;BME280;63298;53.164;8.610;2023-10-09T10:32:12;101756.84;;;16.64;86.85
74778;BME280;63298;53.164;8.610;2023-10-09T10:37:11;101751.88;;;16.66;87.33
74778;BME280;63298;53.164;8.610;2023-10-09T10:39:49;101757.19;;;16.67;87.66
74778;BME280;63298;53.164;8.610;2023-10-09T10:42:15;101759.13;;;16.67;87.18
74778;BME280;63298;53.164;8.610;2023-10-09T10:44:43;101762.75;;;16.67;87.80
74778;BME280;63298;53.164;8.610;2023-10-09T10:47:12;101767.50;;;16.67;88.09
74778;BME280;63298;53.164;8.610;2023-10-09T10:49:43;101772.78;;;16.68;87.32
74778;BME280;63298;53.164;8.610;2023-10-09T10:52:20;101775.00;;;16.66;89.52
74778;BME280;63298;53.164;8.610;2023-10-09T10:54:45;101785.13;;;16.72;87.55
74778;BME280;63298;53.164;8.610;2023-10-09T10:57:18;101773.72;;;16.74;87.21
74778;BME280;63298;53.164;8.610;2023-10-09T10:59:47;101776.81;;;16.77;87.16
74778;BME280;63298;53.164;8.610;2023-10-09T11:02:13;101773.22;;;16.77;87.28
74778;BME280;63298;53.164;8.610;2023-10-09T11:04:38;101769.91;;;16.80;87.14
74778;BME280;63298;53.164;8.610;2023-10-09T11:07:05;101773.03;;;16.83;87.32
74778;BME280;63298;53.164;8.610;2023-10-09T11:09:42;101783.59;;;16.81;87.94
74778;BME280;63298;53.164;8.610;2023-10-09T11:12:08;101785.63;;;16.86;87.55
74778;BME280;63298;53.164;8.610;2023-10-09T11:14:33;101781.72;;;16.87;87.87
74778;BME280;63298;53.164;8.610;2023-10-09T11:17:01;101779.53;;;16.89;87.53
74778;BME280;63298;53.164;8.610;2023-10-09T11:19:27;101776.47;;;16.91;87.33
74778;BME280;63298;53.164;8.610;2023-10-09T11:21:55;101778.50;;;16.95;87.29
74778;BME280;63298;53.164;8.610;2023-10-09T11:24:23;101770.72;;;16.97;87.42
74778;BME280;63298;53.164;8.610;2023-10-09T11:26:51;101773.84;;;17.01;87.41
74778;BME280;63298;53.164;8.610;2023-10-09T11:29:17;101770.22;;;17.00;88.04
74778;BME280;63298;53.164;8.610;2023-10-09T11:32:04;101771.38;;;17.04;87.96
74778;BME280;63298;53.164;8.610;2023-10-09T11:34:31;101768.06;;;17.07;87.66
74778;BME280;63298;53.164;8.610;2023-10-09T11:36:58;101765.28;;;17.07;88.27
74778;BME280;63298;53.164;8.610;2023-10-09T11:39:26;101771.19;;;17.11;88.22
74778;BME280;63298;53.164;8.610;2023-10-09T11:42:09;101771.44;;;17.09;89.56
74778;BME280;63298;53.164;8.610;2023-10-09T11:44:41;101772.38;;;17.15;89.81
74778;BME280;63298;53.164;8.610;2023-10-09T11:47:07;101762.13;;;17.20;88.72
74778;BME280;63298;53.164;8.610;2023-10-09T11:49:33;101775.28;;;17.25;88.90
74778;BME280;63298;53.164;8.610;2023-10-09T11:52:06;101774.75;;;17.28;89.07
74778;BME280;63298;53.164;8.610;2023-10-09T11:54:32;101779.00;;;17.31;88.76
74778;BME280;63298;53.164;8.610;2023-10-09T11:56:58;101794.28;;;17.28;89.34
74778;BME280;63298;53.164;8.610;2023-10-09T11:59:23;101778.59;;;17.22;89.69
74778;BME280;63298;53.164;8.610;2023-10-09T12:01:51;101783.00;;;17.18;90.22
74778;BME280;63298;53.164;8.610;2023-10-09T12:04:16;101783.66;;;17.25;89.61
74778;BME280;63298;53.164;8.610;2023-10-09T12:06:41;101786.00;;;17.33;89.00
74778;BME280;63298;53.164;8.610;2023-10-09T12:09:07;101783.81;;;17.35;88.61
74778;BME280;63298;53.164;8.610;2023-10-09T12:11:32;101781.72;;;17.47;88.65
74778;BME280;63298;53.164;8.610;2023-10-09T12:13:57;101782.06;;;17.51;88.49
74778;BME280;63298;53.164;8.610;2023-10-09T12:16:26;101782.22;;;17.61;87.75
74778;BME280;63298;53.164;8.610;2023-10-09T12:18:52;101781.16;;;17.67;87.99
74778;BME280;63298;53.164;8.610;2023-10-09T12:21:17;101778.41;;;17.72;87.80
74778;BME280;63298;53.164;8.610;2023-10-09T12:23:44;101776.78;;;17.76;87.26
74778;BME280;63298;53.164;8.610;2023-10-09T12:26:10;101772.94;;;17.82;87.33
74778;BME280;63298;53.164;8.610;2023-10-09T12:28:35;101778.34;;;17.89;87.40
74778;BME280;63298;53.164;8.610;2023-10-09T12:31:00;101768.84;;;17.90;86.91
74778;BME280;63298;53.164;8.610;2023-10-09T12:33:26;101770.56;;;17.96;86.75
74778;BME280;63298;53.164;8.610;2023-10-09T12:35:51;101769.22;;;17.98;86.68
74778;BME280;63298;53.164;8.610;2023-10-09T12:38:19;101764.72;;;17.97;86.83
74778;BME280;63298;53.164;8.610;2023-10-09T12:40:45;101770.97;;;18.04;86.45
74778;BME280;63298;53.164;8.610;2023-10-09T12:43:14;101774.00;;;18.03;86.48
74778;BME280;63298;53.164;8.610;2023-10-09T12:45:39;101779.59;;;18.03;86.20
74778;BME280;63298;53.164;8.610;2023-10-09T12:48:07;101774.53;;;18.00;86.41
74778;BME280;63298;53.164;8.610;2023-10-09T12:50:36;101775.66;;;17.99;86.45
74778;BME280;63298;53.164;8.610;2023-10-09T12:53:02;101785.44;;;18.01;86.12
74778;BME280;63298;53.164;8.610;2023-10-09T12:55:30;101792.97;;;18.01;86.46